sensor_id;sensor_type;location;lat;lon;timestamp;P1;durP1;ratioP1;P2;durP2;ratioP2
6785;SDS011;3430;51.192;6.048;2022-10-01T00:00:23;2.90;;;2.60;;
6785;SDS011;3430;51.192;6.048;2022-10-01T00:02:50;2.70;;;2.50;;
6785;SDS011;3430;51.192;6.048;2022-10-01T00:05:16;2.73;;;2.30;;
6785;SDS011;3430;51.192;6.048;2022-10-01T00:07:43;3.13;;;2.60;;
6785;SDS011;3430;51.192;6.048;2022-10-01T00:10:09;3.97;;;2.70;;
6785;SDS011;3430;51.192;6.048;2022-10-01T00:12:35;6.83;;;3.33;;
6785;SDS011;3430;51.192;6.048;2022-10-01T00:15:01;3.23;;;2.90;;
6785;SDS011;3430;51.192;6.048;2022-10-01T00:17:27;2.93;;;2.37;;
6785;SDS011;3430;51.192;6.048;2022-10-01T00:19:52;3.00;;;2.80;;
6785;SDS011;3430;51.192;6.048;2022-10-01T00:22:18;3.67;;;2.43;;
6785;SDS011;3430;51.192;6.048;2022-10-01T00:24:44;5.10;;;2.67;;
6785;SDS011;3430;51.192;6.048;2022-10-01T00:27:11;4.20;;;2.83;;
6785;SDS011;3430;51.192;6.048;2022-10-01T00:29:37;2.70;;;2.50;;
6785;SDS011;3430;51.192;6.048;2022-10-01T00:32:03;3.80;;;3.03;;
6785;SDS011;3430;51.192;6.048;2022-10-01T00:34:28;2.53;;;2.33;;
6785;SDS011;3430;51.192;6.048;2022-10-01T00:36:54;7.10;;;2.90;;
6785;SDS011;3430;51.192;6.048;2022-10-01T00:39:19;2.40;;;2.20;;
6785;SDS011;3430;51.192;6.048;2022-10-01T00:41:44;3.23;;;2.77;;
6785;SDS011;3430;51.192;6.048;2022-10-01T00:44:32;2.80;;;2.60;;
6785;SDS011;3430;51.192;6.048;2022-10-01T00:47:03;2.97;;;2.70;;
6785;SDS011;3430;51.192;6.048;2022-10-01T00:49:30;3.87;;;2.60;;
6785;SDS011;3430;51.192;6.048;2022-10-01T00:51:59;3.30;;;3.00;;
6785;SDS011;3430;51.192;6.048;2022-10-01T00:55:00;4.67;;;2.40;;
6785;SDS011;3430;51.192;6.048;2022-10-01T00:57:18;2.80;;;2.60;;
6785;SDS011;3430;51.192;6.048;2022-10-01T00:59:44;2.60;;;2.40;;
6785;SDS011;3430;51.192;6.048;2022-10-01T01:02:10;2.50;;;2.30;;
6785;SDS011;3430;51.192;6.048;2022-10-01T01:04:37;4.30;;;2.70;;
6785;SDS011;3430;51.192;6.048;2022-10-01T01:07:04;2.87;;;2.63;;
6785;SDS011;3430;51.192;6.048;2022-10-01T01:09:32;2.97;;;2.67;;
6785;SDS011;3430;51.192;6.048;2022-10-01T01:12:32;2.57;;;2.37;;
6785;SDS011;3430;51.192;6.048;2022-10-01T01:15:03;3.83;;;2.47;;
6785;SDS011;3430;51.192;6.048;2022-10-01T01:18:14;3.90;;;2.70;;
6785;SDS011;3430;51.192;6.048;2022-10-01T01:25:47;2.27;;;2.10;;
6785;SDS011;3430;51.192;6.048;2022-10-01T01:30:38;2.90;;;2.60;;
6785;SDS011;3430;51.192;6.048;2022-10-01T01:33:15;3.53;;;2.43;;
6785;SDS011;3430;51.192;6.048;2022-10-01T01:35:43;2.60;;;2.40;;
6785;SDS011;3430;51.192;6.048;2022-10-01T01:38:12;2.37;;;2.17;;
6785;SDS011;3430;51.192;6.048;2022-10-01T01:40:39;4.23;;;2.50;;
6785;SDS011;3430;51.192;6.048;2022-10-01T01:43:06;3.03;;;2.33;;
6785;SDS011;3430;51.192;6.048;2022-10-01T01:45:32;2.40;;;2.20;;
6785;SDS011;3430;51.192;6.048;2022-10-01T01:47:58;2.50;;;2.30;;
6785;SDS011;3430;51.192;6.048;2022-10-01T01:50:26;2.57;;;2.37;;
6785;SDS011;3430;51.192;6.048;2022-10-01T01:52:54;2.40;;;2.20;;
6785;SDS011;3430;51.192;6.048;2022-10-01T01:55:20;2.60;;;2.40;;
6785;SDS011;3430;51.192;6.048;2022-10-01T01:57:47;2.77;;;2.40;;
6785;SDS011;3430;51.192;6.048;2022-10-01T02:00:14;2.40;;;2.20;;
6785;SDS011;3430;51.192;6.048;2022-10-01T02:02:39;6.97;;;2.50;;
6785;SDS011;3430;51.192;6.048;2022-10-01T02:05:08;3.03;;;2.67;;
6785;SDS011;3430;51.192;6.048;2022-10-01T02:15:50;2.97;;;2.70;;
6785;SDS011;3430;51.192;6.048;2022-10-01T02:18:28;2.63;;;2.43;;
6785;SDS011;3430;51.192;6.048;2022-10-01T02:21:57;3.43;;;2.20;;
6785;SDS011;3430;51.192;6.048;2022-10-01T02:26:22;2.30;;;2.17;;
6785;SDS011;3430;51.192;6.048;2022-10-01T02:28:48;2.00;;;1.90;;
6785;SDS011;3430;51.192;6.048;2022-10-01T02:31:15;2.27;;;2.03;;
6785;SDS011;3430;51.192;6.048;2022-10-01T02:33:42;2.23;;;2.03;;
6785;SDS011;3430;51.192;6.048;2022-10-01T02:36:08;2.00;;;1.90;;
6785;SDS011;3430;51.192;6.048;2022-10-01T02:38:35;2.73;;;2.03;;
6785;SDS011;3430;51.192;6.048;2022-10-01T02:41:03;2.20;;;2.00;;
6785;SDS011;3430;51.192;6.048;2022-10-01T02:43:31;2.20;;;2.00;;
6785;SDS011;3430;51.192;6.048;2022-10-01T02:46:04;2.87;;;1.93;;
6785;SDS011;3430;51.192;6.048;2022-10-01T02:48:31;2.10;;;1.90;;
6785;SDS011;3430;51.192;6.048;2022-10-01T02:51:13;2.00;;;1.90;;
6785;SDS011;3430;51.192;6.048;2022-10-01T02:53:44;1.90;;;1.70;;
6785;SDS011;3430;51.192;6.048;2022-10-01T02:56:11;2.50;;;2.27;;
6785;SDS011;3430;51.192;6.048;2022-10-01T02:58:38;1.80;;;1.70;;
6785;SDS011;3430;51.192;6.048;2022-10-01T03:01:05;1.90;;;1.80;;
6785;SDS011;3430;51.192;6.048;2022-10-01T03:03:31;3.10;;;2.00;;
6785;SDS011;3430;51.192;6.048;2022-10-01T03:05:56;1.97;;;1.70;;
6785;SDS011;3430;51.192;6.048;2022-10-01T03:08:21;1.83;;;1.73;;
6785;SDS011;3430;51.192;6.048;2022-10-01T03:10:47;1.90;;;1.80;;
6785;SDS011;3430;51.192;6.048;2022-10-01T03:13:12;1.83;;;1.73;;
6785;SDS011;3430;51.192;6.048;2022-10-01T03:15:37;1.80;;;1.70;;
6785;SDS011;3430;51.192;6.048;2022-10-01T03:18:03;1.67;;;1.57;;
6785;SDS011;3430;51.192;6.048;2022-10-01T03:20:28;2.57;;;1.70;;
6785;SDS011;3430;51.192;6.048;2022-10-01T03:22:53;1.70;;;1.60;;
6785;SDS011;3430;51.192;6.048;2022-10-01T03:25:19;2.10;;;1.90;;
6785;SDS011;3430;51.192;6.048;2022-10-01T03:27:44;2.20;;;2.00;;
6785;SDS011;3430;51.192;6.048;2022-10-01T03:30:10;2.00;;;1.80;;
6785;SDS011;3430;51.192;6.048;2022-10-01T03:32:35;1.70;;;1.60;;
6785;SDS011;3430;51.192;6.048;2022-10-01T03:35:01;1.80;;;1.70;;
6785;SDS011;3430;51.192;6.048;2022-10-01T03:37:26;1.73;;;1.63;;
6785;SDS011;3430;51.192;6.048;2022-10-01T03:39:51;1.70;;;1.60;;
6785;SDS011;3430;51.192;6.048;2022-10-01T03:42:16;1.63;;;1.53;;
6785;SDS011;3430;51.192;6.048;2022-10-01T03:44:42;1.80;;;1.70;;
6785;SDS011;3430;51.192;6.048;2022-10-01T03:47:08;2.50;;;1.87;;
6785;SDS011;3430;51.192;6.048;2022-10-01T03:49:33;1.60;;;1.50;;
6785;SDS011;3430;51.192;6.048;2022-10-01T03:51:59;1.93;;;1.70;;
6785;SDS011;3430;51.192;6.048;2022-10-01T03:54:26;1.63;;;1.53;;
6785;SDS011;3430;51.192;6.048;2022-10-01T03:56:51;1.77;;;1.67;;
6785;SDS011;3430;51.192;6.048;2022-10-01T03:59:16;2.17;;;1.40;;
6785;SDS011;3430;51.192;6.048;2022-10-01T04:01:42;1.60;;;1.50;;
6785;SDS011;3430;51.192;6.048;2022-10-01T04:04:07;1.70;;;1.53;;
6785;SDS011;3430;51.192;6.048;2022-10-01T04:06:32;1.70;;;1.60;;
6785;SDS011;3430;51.192;6.048;2022-10-01T04:08:58;1.87;;;1.43;;
6785;SDS011;3430;51.192;6.048;2022-10-01T04:11:23;1.73;;;1.43;;
6785;SDS011;3430;51.192;6.048;2022-10-01T04:13:49;1.60;;;1.50;;
6785;SDS011;3430;51.192;6.048;2022-10-01T04:16:14;1.73;;;1.50;;
6785;SDS011;3430;51.192;6.048;2022-10-01T04:18:40;1.50;;;1.40;;
6785;SDS011;3430;51.192;6.048;2022-10-01T04:21:05;1.60;;;1.50;;
6785;SDS011;3430;51.192;6.048;2022-10-01T04:23:30;1.47;;;1.40;;
6785;SDS011;3430;51.192;6.048;2022-10-01T04:26:02;2.33;;;1.67;;
6785;SDS011;3430;51.192;6.048;2022-10-01T04:28:27;1.70;;;1.60;;
6785;SDS011;3430;51.192;6.048;2022-10-01T04:30:52;2.00;;;1.73;;
6785;SDS011;3430;51.192;6.048;2022-10-01T04:33:38;1.40;;;1.30;;
6785;SDS011;3430;51.192;6.048;2022-10-01T04:36:03;1.77;;;1.47;;
6785;SDS011;3430;51.192;6.048;2022-10-01T04:38:28;1.60;;;1.50;;
6785;SDS011;3430;51.192;6.048;2022-10-01T04:40:54;2.37;;;1.90;;
6785;SDS011;3430;51.192;6.048;2022-10-01T04:43:19;1.60;;;1.50;;
6785;SDS011;3430;51.192;6.048;2022-10-01T04:45:44;1.50;;;1.40;;
6785;SDS011;3430;51.192;6.048;2022-10-01T04:48:09;2.23;;;1.20;;
6785;SDS011;3430;51.192;6.048;2022-10-01T04:50:35;1.70;;;1.60;;
6785;SDS011;3430;51.192;6.048;2022-10-01T04:53:00;1.60;;;1.50;;
6785;SDS011;3430;51.192;6.048;2022-10-01T04:55:25;1.37;;;1.33;;
6785;SDS011;3430;51.192;6.048;2022-10-01T04:57:50;1.40;;;1.30;;
6785;SDS011;3430;51.192;6.048;2022-10-01T05:00:17;1.67;;;1.50;;
6785;SDS011;3430;51.192;6.048;2022-10-01T05:02:43;1.30;;;1.20;;
6785;SDS011;3430;51.192;6.048;2022-10-01T05:05:08;1.30;;;1.20;;
6785;SDS011;3430;51.192;6.048;2022-10-01T05:07:34;1.37;;;1.27;;
6785;SDS011;3430;51.192;6.048;2022-10-01T05:10:00;1.30;;;1.20;;
6785;SDS011;3430;51.192;6.048;2022-10-01T05:12:25;1.03;;;1.03;;
6785;SDS011;3430;51.192;6.048;2022-10-01T05:14:51;1.10;;;1.10;;
6785;SDS011;3430;51.192;6.048;2022-10-01T05:17:17;1.50;;;1.40;;
6785;SDS011;3430;51.192;6.048;2022-10-01T05:19:44;1.20;;;1.10;;
6785;SDS011;3430;51.192;6.048;2022-10-01T05:22:09;1.00;;;1.00;;
6785;SDS011;3430;51.192;6.048;2022-10-01T05:24:34;1.00;;;1.00;;
6785;SDS011;3430;51.192;6.048;2022-10-01T05:26:59;1.80;;;1.50;;
6785;SDS011;3430;51.192;6.048;2022-10-01T05:29:25;1.37;;;1.00;;
6785;SDS011;3430;51.192;6.048;2022-10-01T05:31:50;0.90;;;0.90;;
6785;SDS011;3430;51.192;6.048;2022-10-01T05:34:15;1.30;;;1.10;;
6785;SDS011;3430;51.192;6.048;2022-10-01T05:36:41;1.00;;;1.00;;
6785;SDS011;3430;51.192;6.048;2022-10-01T05:39:06;1.10;;;1.00;;
6785;SDS011;3430;51.192;6.048;2022-10-01T05:41:31;1.00;;;1.00;;
6785;SDS011;3430;51.192;6.048;2022-10-01T05:43:57;1.23;;;1.00;;
6785;SDS011;3430;51.192;6.048;2022-10-01T05:46:22;1.07;;;1.00;;
6785;SDS011;3430;51.192;6.048;2022-10-01T05:48:48;0.90;;;0.90;;
6785;SDS011;3430;51.192;6.048;2022-10-01T05:51:15;0.90;;;0.90;;
6785;SDS011;3430;51.192;6.048;2022-10-01T05:53:41;1.03;;;1.00;;
6785;SDS011;3430;51.192;6.048;2022-10-01T05:56:06;0.90;;;0.90;;
6785;SDS011;3430;51.192;6.048;2022-10-01T05:58:32;0.97;;;0.97;;
6785;SDS011;3430;51.192;6.048;2022-10-01T06:00:57;1.13;;;1.03;;
6785;SDS011;3430;51.192;6.048;2022-10-01T06:03:23;1.03;;;1.03;;
6785;SDS011;3430;51.192;6.048;2022-10-01T06:05:49;1.00;;;1.00;;
6785;SDS011;3430;51.192;6.048;2022-10-01T06:08:16;1.00;;;0.90;;
6785;SDS011;3430;51.192;6.048;2022-10-01T06:10:41;1.00;;;1.00;;
6785;SDS011;3430;51.192;6.048;2022-10-01T06:13:06;1.00;;;1.00;;
6785;SDS011;3430;51.192;6.048;2022-10-01T06:15:33;1.03;;;1.00;;
6785;SDS011;3430;51.192;6.048;2022-10-01T06:18:02;1.13;;;1.10;;
6785;SDS011;3430;51.192;6.048;2022-10-01T06:20:27;1.13;;;1.03;;
6785;SDS011;3430;51.192;6.048;2022-10-01T06:22:54;1.10;;;1.10;;
6785;SDS011;3430;51.192;6.048;2022-10-01T06:25:19;1.27;;;1.17;;
6785;SDS011;3430;51.192;6.048;2022-10-01T06:27:50;1.10;;;1.00;;
6785;SDS011;3430;51.192;6.048;2022-10-01T06:30:16;1.10;;;1.10;;
6785;SDS011;3430;51.192;6.048;2022-10-01T06:32:41;1.27;;;1.17;;
6785;SDS011;3430;51.192;6.048;2022-10-01T06:35:07;1.00;;;1.00;;
6785;SDS011;3430;51.192;6.048;2022-10-01T06:37:35;1.20;;;1.10;;
6785;SDS011;3430;51.192;6.048;2022-10-01T06:40:00;1.00;;;1.00;;
6785;SDS011;3430;51.192;6.048;2022-10-01T06:42:26;1.20;;;1.10;;
6785;SDS011;3430;51.192;6.048;2022-10-01T06:44:51;1.00;;;1.00;;
6785;SDS011;3430;51.192;6.048;2022-10-01T06:47:16;1.20;;;1.10;;
6785;SDS011;3430;51.192;6.048;2022-10-01T06:49:41;0.97;;;0.93;;
6785;SDS011;3430;51.192;6.048;2022-10-01T06:52:07;1.00;;;1.00;;
6785;SDS011;3430;51.192;6.048;2022-10-01T06:54:52;1.07;;;1.03;;
6785;SDS011;3430;51.192;6.048;2022-10-01T06:57:17;1.20;;;1.10;;
6785;SDS011;3430;51.192;6.048;2022-10-01T06:59:42;1.10;;;1.00;;
6785;SDS011;3430;51.192;6.048;2022-10-01T07:02:10;1.43;;;1.10;;
6785;SDS011;3430;51.192;6.048;2022-10-01T07:04:43;1.57;;;1.13;;
6785;SDS011;3430;51.192;6.048;2022-10-01T07:07:11;1.07;;;1.07;;
6785;SDS011;3430;51.192;6.048;2022-10-01T07:09:37;4.30;;;1.20;;
6785;SDS011;3430;51.192;6.048;2022-10-01T07:12:02;1.30;;;1.20;;
6785;SDS011;3430;51.192;6.048;2022-10-01T07:14:27;1.20;;;1.20;;
6785;SDS011;3430;51.192;6.048;2022-10-01T07:16:53;2.73;;;1.13;;
6785;SDS011;3430;51.192;6.048;2022-10-01T07:19:18;1.00;;;1.00;;
6785;SDS011;3430;51.192;6.048;2022-10-01T07:21:46;1.20;;;1.10;;
6785;SDS011;3430;51.192;6.048;2022-10-01T07:24:11;1.10;;;1.10;;
6785;SDS011;3430;51.192;6.048;2022-10-01T07:26:37;1.20;;;1.10;;
6785;SDS011;3430;51.192;6.048;2022-10-01T07:29:02;1.90;;;1.00;;
6785;SDS011;3430;51.192;6.048;2022-10-01T07:31:28;1.50;;;1.00;;
6785;SDS011;3430;51.192;6.048;2022-10-01T07:33:56;1.00;;;1.00;;
6785;SDS011;3430;51.192;6.048;2022-10-01T07:36:22;1.00;;;1.00;;
6785;SDS011;3430;51.192;6.048;2022-10-01T07:38:48;2.40;;;1.10;;
6785;SDS011;3430;51.192;6.048;2022-10-01T07:41:14;3.33;;;1.20;;
6785;SDS011;3430;51.192;6.048;2022-10-01T07:43:41;1.80;;;1.17;;
6785;SDS011;3430;51.192;6.048;2022-10-01T07:46:07;2.63;;;1.13;;
6785;SDS011;3430;51.192;6.048;2022-10-01T07:48:33;1.33;;;0.93;;
6785;SDS011;3430;51.192;6.048;2022-10-01T07:50:58;1.00;;;1.00;;
6785;SDS011;3430;51.192;6.048;2022-10-01T07:53:23;1.13;;;1.07;;
6785;SDS011;3430;51.192;6.048;2022-10-01T07:55:49;1.10;;;1.10;;
6785;SDS011;3430;51.192;6.048;2022-10-01T07:58:14;1.20;;;1.10;;
6785;SDS011;3430;51.192;6.048;2022-10-01T08:00:40;1.53;;;1.30;;
6785;SDS011;3430;51.192;6.048;2022-10-01T08:03:07;5.20;;;1.20;;
6785;SDS011;3430;51.192;6.048;2022-10-01T08:05:33;1.20;;;1.00;;
6785;SDS011;3430;51.192;6.048;2022-10-01T08:08:02;1.20;;;1.10;;
6785;SDS011;3430;51.192;6.048;2022-10-01T08:10:28;2.07;;;1.20;;
6785;SDS011;3430;51.192;6.048;2022-10-01T08:13:04;1.00;;;1.00;;
6785;SDS011;3430;51.192;6.048;2022-10-01T08:15:38;1.10;;;1.00;;
6785;SDS011;3430;51.192;6.048;2022-10-01T08:18:03;1.10;;;1.00;;
6785;SDS011;3430;51.192;6.048;2022-10-01T08:20:29;1.53;;;1.10;;
6785;SDS011;3430;51.192;6.048;2022-10-01T08:23:00;0.93;;;0.93;;
6785;SDS011;3430;51.192;6.048;2022-10-01T08:25:25;1.83;;;1.00;;
6785;SDS011;3430;51.192;6.048;2022-10-01T08:27:50;1.10;;;1.00;;
6785;SDS011;3430;51.192;6.048;2022-10-01T08:30:15;1.20;;;1.10;;
6785;SDS011;3430;51.192;6.048;2022-10-01T08:32:41;1.30;;;1.20;;
6785;SDS011;3430;51.192;6.048;2022-10-01T08:35:06;3.13;;;1.00;;
6785;SDS011;3430;51.192;6.048;2022-10-01T08:37:31;3.60;;;1.10;;
6785;SDS011;3430;51.192;6.048;2022-10-01T08:39:57;0.90;;;0.90;;
6785;SDS011;3430;51.192;6.048;2022-10-01T08:44:53;1.17;;;1.07;;
6785;SDS011;3430;51.192;6.048;2022-10-01T08:47:26;1.20;;;1.10;;
6785;SDS011;3430;51.192;6.048;2022-10-01T08:49:57;1.00;;;1.00;;
6785;SDS011;3430;51.192;6.048;2022-10-01T08:54:50;1.00;;;1.00;;
6785;SDS011;3430;51.192;6.048;2022-10-01T08:57:29;3.43;;;1.07;;
6785;SDS011;3430;51.192;6.048;2022-10-01T08:59:55;1.00;;;1.00;;
6785;SDS011;3430;51.192;6.048;2022-10-01T09:04:47;1.20;;;1.10;;
6785;SDS011;3430;51.192;6.048;2022-10-01T09:09:58;1.30;;;1.13;;
6785;SDS011;3430;51.192;6.048;2022-10-01T09:27:32;0.93;;;0.93;;
6785;SDS011;3430;51.192;6.048;2022-10-01T09:30:00;1.00;;;1.00;;
6785;SDS011;3430;51.192;6.048;2022-10-01T09:32:35;1.73;;;1.07;;
6785;SDS011;3430;51.192;6.048;2022-10-01T09:35:02;1.50;;;1.40;;
6785;SDS011;3430;51.192;6.048;2022-10-01T09:42:43;1.33;;;1.23;;
6785;SDS011;3430;51.192;6.048;2022-10-01T09:45:16;1.60;;;1.10;;
6785;SDS011;3430;51.192;6.048;2022-10-01T09:47:44;1.20;;;1.10;;
6785;SDS011;3430;51.192;6.048;2022-10-01T09:50:14;1.27;;;1.10;;
6785;SDS011;3430;51.192;6.048;2022-10-01T09:52:40;1.20;;;1.10;;
6785;SDS011;3430;51.192;6.048;2022-10-01T09:55:19;1.00;;;1.00;;
6785;SDS011;3430;51.192;6.048;2022-10-01T09:57:50;1.93;;;1.20;;
6785;SDS011;3430;51.192;6.048;2022-10-01T10:00:17;1.20;;;1.10;;
6785;SDS011;3430;51.192;6.048;2022-10-01T10:02:44;1.20;;;1.10;;
6785;SDS011;3430;51.192;6.048;2022-10-01T10:05:22;1.03;;;1.00;;
6785;SDS011;3430;51.192;6.048;2022-10-01T10:07:58;3.30;;;1.30;;
6785;SDS011;3430;51.192;6.048;2022-10-01T10:12:53;1.67;;;1.57;;
6785;SDS011;3430;51.192;6.048;2022-10-01T10:15:20;2.10;;;1.40;;
6785;SDS011;3430;51.192;6.048;2022-10-01T10:17:46;1.47;;;1.30;;
6785;SDS011;3430;51.192;6.048;2022-10-01T10:20:19;1.50;;;1.10;;
6785;SDS011;3430;51.192;6.048;2022-10-01T10:22:47;2.80;;;1.10;;
6785;SDS011;3430;51.192;6.048;2022-10-01T10:25:15;2.03;;;1.40;;
6785;SDS011;3430;51.192;6.048;2022-10-01T10:27:50;2.67;;;1.40;;
6785;SDS011;3430;51.192;6.048;2022-10-01T10:30:19;2.40;;;1.20;;
6785;SDS011;3430;51.192;6.048;2022-10-01T10:32:44;3.37;;;1.27;;
6785;SDS011;3430;51.192;6.048;2022-10-01T10:35:13;1.50;;;1.40;;
6785;SDS011;3430;51.192;6.048;2022-10-01T10:37:52;1.33;;;1.23;;
6785;SDS011;3430;51.192;6.048;2022-10-01T10:40:19;2.13;;;1.20;;
6785;SDS011;3430;51.192;6.048;2022-10-01T10:42:46;3.47;;;1.40;;
6785;SDS011;3430;51.192;6.048;2022-10-01T10:45:14;1.80;;;1.20;;
6785;SDS011;3430;51.192;6.048;2022-10-01T10:47:44;1.37;;;1.03;;
6785;SDS011;3430;51.192;6.048;2022-10-01T10:50:12;1.60;;;1.50;;
6785;SDS011;3430;51.192;6.048;2022-10-01T10:52:44;1.43;;;1.10;;
6785;SDS011;3430;51.192;6.048;2022-10-01T10:55:26;1.30;;;1.03;;
6785;SDS011;3430;51.192;6.048;2022-10-01T10:57:53;5.63;;;1.90;;
6785;SDS011;3430;51.192;6.048;2022-10-01T11:00:19;1.97;;;1.33;;
6785;SDS011;3430;51.192;6.048;2022-10-01T11:02:52;1.53;;;1.30;;
6785;SDS011;3430;51.192;6.048;2022-10-01T11:05:20;3.20;;;1.60;;
6785;SDS011;3430;51.192;6.048;2022-10-01T11:07:46;1.40;;;1.30;;
6785;SDS011;3430;51.192;6.048;2022-10-01T11:13:04;1.20;;;1.10;;
6785;SDS011;3430;51.192;6.048;2022-10-01T11:18:16;2.50;;;1.30;;
6785;SDS011;3430;51.192;6.048;2022-10-01T11:43:31;1.90;;;1.40;;
6785;SDS011;3430;51.192;6.048;2022-10-01T11:46:06;2.10;;;1.40;;
6785;SDS011;3430;51.192;6.048;2022-10-01T11:48:35;1.93;;;1.40;;
6785;SDS011;3430;51.192;6.048;2022-10-01T11:51:04;1.20;;;1.10;;
6785;SDS011;3430;51.192;6.048;2022-10-01T11:53:34;1.53;;;1.43;;
6785;SDS011;3430;51.192;6.048;2022-10-01T11:56:06;2.27;;;1.60;;
6785;SDS011;3430;51.192;6.048;2022-10-01T11:58:54;2.47;;;1.50;;
6785;SDS011;3430;51.192;6.048;2022-10-01T12:06:22;2.90;;;1.83;;
6785;SDS011;3430;51.192;6.048;2022-10-01T12:08:52;2.93;;;1.60;;
6785;SDS011;3430;51.192;6.048;2022-10-01T12:11:34;3.80;;;2.27;;
6785;SDS011;3430;51.192;6.048;2022-10-01T12:14:02;6.00;;;1.50;;
6785;SDS011;3430;51.192;6.048;2022-10-01T12:16:38;2.73;;;1.70;;
6785;SDS011;3430;51.192;6.048;2022-10-01T12:19:18;1.60;;;1.50;;
6785;SDS011;3430;51.192;6.048;2022-10-01T12:24:27;2.20;;;1.73;;
6785;SDS011;3430;51.192;6.048;2022-10-01T12:37:37;3.37;;;1.97;;
6785;SDS011;3430;51.192;6.048;2022-10-01T12:40:25;2.97;;;1.60;;
6785;SDS011;3430;51.192;6.048;2022-10-01T12:43:01;2.60;;;1.60;;
6785;SDS011;3430;51.192;6.048;2022-10-01T12:48:34;2.27;;;1.70;;
6785;SDS011;3430;51.192;6.048;2022-10-01T12:54:07;1.53;;;1.43;;
6785;SDS011;3430;51.192;6.048;2022-10-01T13:09:40;3.00;;;1.80;;
6785;SDS011;3430;51.192;6.048;2022-10-01T13:12:24;4.63;;;1.60;;
6785;SDS011;3430;51.192;6.048;2022-10-01T13:14:55;3.03;;;1.77;;
6785;SDS011;3430;51.192;6.048;2022-10-01T13:17:26;3.10;;;1.43;;
6785;SDS011;3430;51.192;6.048;2022-10-01T13:20:02;3.30;;;1.97;;
6785;SDS011;3430;51.192;6.048;2022-10-01T13:22:37;3.43;;;1.40;;
6785;SDS011;3430;51.192;6.048;2022-10-01T13:25:18;4.13;;;1.67;;
6785;SDS011;3430;51.192;6.048;2022-10-01T13:27:46;3.43;;;1.43;;
6785;SDS011;3430;51.192;6.048;2022-10-01T13:30:17;4.60;;;1.87;;
6785;SDS011;3430;51.192;6.048;2022-10-01T13:35:20;2.47;;;1.47;;
6785;SDS011;3430;51.192;6.048;2022-10-01T13:37:47;4.33;;;1.70;;
6785;SDS011;3430;51.192;6.048;2022-10-01T13:40:26;1.70;;;1.60;;
6785;SDS011;3430;51.192;6.048;2022-10-01T13:42:52;3.30;;;1.57;;
6785;SDS011;3430;51.192;6.048;2022-10-01T13:47:50;2.30;;;1.43;;
6785;SDS011;3430;51.192;6.048;2022-10-01T13:50:22;4.00;;;1.70;;
6785;SDS011;3430;51.192;6.048;2022-10-01T13:52:49;2.27;;;1.43;;
6785;SDS011;3430;51.192;6.048;2022-10-01T13:55:27;1.83;;;1.53;;
6785;SDS011;3430;51.192;6.048;2022-10-01T13:58:06;2.67;;;1.67;;
6785;SDS011;3430;51.192;6.048;2022-10-01T14:00:32;4.57;;;1.87;;
6785;SDS011;3430;51.192;6.048;2022-10-01T14:02:59;2.30;;;1.33;;
6785;SDS011;3430;51.192;6.048;2022-10-01T14:07:51;1.83;;;1.60;;
6785;SDS011;3430;51.192;6.048;2022-10-01T14:10:19;1.80;;;1.60;;
6785;SDS011;3430;51.192;6.048;2022-10-01T14:12:45;2.50;;;1.40;;
6785;SDS011;3430;51.192;6.048;2022-10-01T14:15:41;4.27;;;1.70;;
6785;SDS011;3430;51.192;6.048;2022-10-01T14:18:29;2.87;;;1.50;;
6785;SDS011;3430;51.192;6.048;2022-10-01T14:23:46;2.50;;;1.50;;
6785;SDS011;3430;51.192;6.048;2022-10-01T14:31:44;2.30;;;2.10;;
6785;SDS011;3430;51.192;6.048;2022-10-01T14:36:46;2.40;;;1.60;;
6785;SDS011;3430;51.192;6.048;2022-10-01T14:39:19;4.83;;;1.80;;
6785;SDS011;3430;51.192;6.048;2022-10-01T14:41:48;3.00;;;1.70;;
6785;SDS011;3430;51.192;6.048;2022-10-01T14:46:50;3.23;;;1.80;;
6785;SDS011;3430;51.192;6.048;2022-10-01T14:49:26;3.83;;;2.10;;
6785;SDS011;3430;51.192;6.048;2022-10-01T14:51:54;3.20;;;2.40;;
6785;SDS011;3430;51.192;6.048;2022-10-01T14:54:20;1.70;;;1.53;;
6785;SDS011;3430;51.192;6.048;2022-10-01T14:56:46;5.23;;;1.67;;
6785;SDS011;3430;51.192;6.048;2022-10-01T14:59:17;2.77;;;1.90;;
6785;SDS011;3430;51.192;6.048;2022-10-01T15:01:52;2.93;;;1.60;;
6785;SDS011;3430;51.192;6.048;2022-10-01T15:04:20;2.60;;;1.60;;
6785;SDS011;3430;51.192;6.048;2022-10-01T15:06:46;1.97;;;1.60;;
6785;SDS011;3430;51.192;6.048;2022-10-01T15:09:12;3.93;;;1.87;;
6785;SDS011;3430;51.192;6.048;2022-10-01T15:11:38;7.87;;;1.83;;
6785;SDS011;3430;51.192;6.048;2022-10-01T15:14:05;1.90;;;1.50;;
6785;SDS011;3430;51.192;6.048;2022-10-01T15:16:32;3.53;;;1.70;;
6785;SDS011;3430;51.192;6.048;2022-10-01T15:18:59;3.00;;;2.20;;
6785;SDS011;3430;51.192;6.048;2022-10-01T15:21:38;2.80;;;1.60;;
6785;SDS011;3430;51.192;6.048;2022-10-01T15:24:05;6.20;;;1.93;;
6785;SDS011;3430;51.192;6.048;2022-10-01T15:26:35;4.77;;;1.90;;
6785;SDS011;3430;51.192;6.048;2022-10-01T15:29:04;3.77;;;1.73;;
6785;SDS011;3430;51.192;6.048;2022-10-01T15:31:30;2.20;;;1.70;;
6785;SDS011;3430;51.192;6.048;2022-10-01T15:33:58;10.13;;;2.00;;
6785;SDS011;3430;51.192;6.048;2022-10-01T15:36:23;4.93;;;1.60;;
6785;SDS011;3430;51.192;6.048;2022-10-01T15:38:49;3.20;;;1.60;;
6785;SDS011;3430;51.192;6.048;2022-10-01T15:41:24;2.50;;;2.30;;
6785;SDS011;3430;51.192;6.048;2022-10-01T15:43:51;4.67;;;1.80;;
6785;SDS011;3430;51.192;6.048;2022-10-01T15:48:42;2.37;;;1.60;;
6785;SDS011;3430;51.192;6.048;2022-10-01T15:51:19;7.23;;;2.07;;
6785;SDS011;3430;51.192;6.048;2022-10-01T15:53:46;2.20;;;1.47;;
6785;SDS011;3430;51.192;6.048;2022-10-01T15:56:16;2.53;;;1.53;;
6785;SDS011;3430;51.192;6.048;2022-10-01T15:58:50;2.80;;;1.60;;
6785;SDS011;3430;51.192;6.048;2022-10-01T16:01:19;1.60;;;1.50;;
6785;SDS011;3430;51.192;6.048;2022-10-01T16:03:53;2.80;;;1.73;;
6785;SDS011;3430;51.192;6.048;2022-10-01T16:06:23;5.47;;;1.77;;
6785;SDS011;3430;51.192;6.048;2022-10-01T16:09:13;4.27;;;1.70;;
6785;SDS011;3430;51.192;6.048;2022-10-01T16:16:49;2.67;;;1.90;;
6785;SDS011;3430;51.192;6.048;2022-10-01T16:19:22;5.20;;;2.50;;
6785;SDS011;3430;51.192;6.048;2022-10-01T16:22:48;4.60;;;1.60;;
6785;SDS011;3430;51.192;6.048;2022-10-01T16:24:48;4.43;;;1.70;;
6785;SDS011;3430;51.192;6.048;2022-10-01T16:27:17;3.93;;;2.60;;
6785;SDS011;3430;51.192;6.048;2022-10-01T16:29:49;2.67;;;1.60;;
6785;SDS011;3430;51.192;6.048;2022-10-01T16:32:16;2.20;;;1.37;;
6785;SDS011;3430;51.192;6.048;2022-10-01T16:34:41;1.80;;;1.70;;
6785;SDS011;3430;51.192;6.048;2022-10-01T16:37:07;5.77;;;1.70;;
6785;SDS011;3430;51.192;6.048;2022-10-01T16:39:33;6.67;;;1.97;;
6785;SDS011;3430;51.192;6.048;2022-10-01T16:41:58;2.43;;;1.90;;
6785;SDS011;3430;51.192;6.048;2022-10-01T16:44:25;2.43;;;1.80;;
6785;SDS011;3430;51.192;6.048;2022-10-01T16:46:51;6.13;;;2.10;;
6785;SDS011;3430;51.192;6.048;2022-10-01T16:49:16;3.73;;;1.80;;
6785;SDS011;3430;51.192;6.048;2022-10-01T16:51:42;3.37;;;1.80;;
6785;SDS011;3430;51.192;6.048;2022-10-01T16:54:15;2.20;;;1.47;;
6785;SDS011;3430;51.192;6.048;2022-10-01T16:56:43;4.40;;;1.80;;
6785;SDS011;3430;51.192;6.048;2022-10-01T16:59:08;4.40;;;2.20;;
6785;SDS011;3430;51.192;6.048;2022-10-01T17:01:34;3.57;;;2.10;;
6785;SDS011;3430;51.192;6.048;2022-10-01T17:03:59;3.87;;;1.87;;
6785;SDS011;3430;51.192;6.048;2022-10-01T17:06:25;2.10;;;1.80;;
6785;SDS011;3430;51.192;6.048;2022-10-01T17:08:50;4.10;;;1.70;;
6785;SDS011;3430;51.192;6.048;2022-10-01T17:11:16;4.07;;;2.13;;
6785;SDS011;3430;51.192;6.048;2022-10-01T17:13:41;2.40;;;1.70;;
6785;SDS011;3430;51.192;6.048;2022-10-01T17:16:07;3.00;;;1.90;;
6785;SDS011;3430;51.192;6.048;2022-10-01T17:18:32;2.47;;;1.70;;
6785;SDS011;3430;51.192;6.048;2022-10-01T17:20:58;4.20;;;1.80;;
6785;SDS011;3430;51.192;6.048;2022-10-01T17:23:25;2.70;;;1.50;;
6785;SDS011;3430;51.192;6.048;2022-10-01T17:25:51;2.20;;;1.40;;
6785;SDS011;3430;51.192;6.048;2022-10-01T17:28:17;8.63;;;1.73;;
6785;SDS011;3430;51.192;6.048;2022-10-01T17:30:44;2.40;;;1.57;;
6785;SDS011;3430;51.192;6.048;2022-10-01T17:33:11;3.27;;;1.63;;
6785;SDS011;3430;51.192;6.048;2022-10-01T17:35:41;2.53;;;1.60;;
6785;SDS011;3430;51.192;6.048;2022-10-01T17:38:07;3.57;;;1.67;;
6785;SDS011;3430;51.192;6.048;2022-10-01T17:40:33;4.50;;;1.67;;
6785;SDS011;3430;51.192;6.048;2022-10-01T17:42:58;4.87;;;1.67;;
6785;SDS011;3430;51.192;6.048;2022-10-01T17:45:24;1.77;;;1.50;;
6785;SDS011;3430;51.192;6.048;2022-10-01T17:47:49;2.80;;;1.60;;